Muzaffargarh Weather



Muzaffargarh's Current Weather

Temprature 38o smoke

smoke

Rain: 0 %

Min Temprature38o
Max Temprature38o
Humidity50
Wind Speed4.1 m/h
Sun Rise05:41:29
Sun Set18:58:52
Current Time: 13-Aug-2020 18:38:21
Lat/Lon: 30.08, 71.19




Muzaffargarh's Geo Location



Muzaffargarh's Weather Forecast

Time Overall Temp Min Temp Max Temp Humidity Wind Speed Rain
13-Aug-2020 (Thu)
20:00:00 clear sky 39.110 39.110 40.280 39 6.67 m/h 0 %
23:00:00 clear sky 38.340 38.340 38.430 37 6.1 m/h 0 %
14-Aug-2020 (Fri)
02:00:00 clear sky 36.940 36.870 36.940 38 4.67 m/h 0 %
05:00:00 clear sky 35.230 35.210 35.230 45 4.74 m/h 0 %
08:00:00 scattered clouds 35.360 35.360 35.360 49 5.6 m/h 0 %
11:00:00 scattered clouds 41.390 41.390 41.390 31 4.56 m/h 0 %
14:00:00 few clouds 44.500 44.500 44.500 24 4.13 m/h 0 %
17:00:00 broken clouds 41.900 41.900 41.900 29 6.28 m/h 0 %
20:00:00 clear sky 39.330 39.330 39.330 33 5.47 m/h 0 %
23:00:00 clear sky 36.840 36.840 36.840 38 3.29 m/h 0 %
15-Aug-2020 (Sat)
02:00:00 clear sky 36.450 36.450 36.450 38 4.96 m/h 0 %
05:00:00 clear sky 35.660 35.660 35.660 41 5.61 m/h 0 %
08:00:00 clear sky 38.060 38.060 38.060 39 7.43 m/h 0 %
11:00:00 clear sky 43.980 43.980 43.980 26 6.62 m/h 0 %
14:00:00 few clouds 46.100 46.100 46.100 22 6.01 m/h 0 %
17:00:00 scattered clouds 45.020 45.020 45.020 22 5.64 m/h 0 %
20:00:00 clear sky 40.490 40.490 40.490 27 4.73 m/h 0 %
23:00:00 clear sky 38.530 38.530 38.530 33 6.38 m/h 0 %
16-Aug-2020 (Sun)
02:00:00 clear sky 37.400 37.400 37.400 37 7.35 m/h 0 %
05:00:00 clear sky 35.250 35.250 35.250 48 7.3 m/h 0 %
08:00:00 clear sky 37.700 37.700 37.700 40 7.13 m/h 0 %
11:00:00 clear sky 43.740 43.740 43.740 25 5.73 m/h 0 %
14:00:00 clear sky 46.140 46.140 46.140 21 4.52 m/h 0 %
17:00:00 scattered clouds 45.030 45.030 45.030 22 5.52 m/h 0 %
20:00:00 scattered clouds 40.880 40.880 40.880 27 5.22 m/h 0 %
23:00:00 few clouds 38.670 38.670 38.670 33 6.06 m/h 0 %
17-Aug-2020 (Mon)
02:00:00 few clouds 36.400 36.400 36.400 44 7.7 m/h 0 %
05:00:00 scattered clouds 34.310 34.310 34.310 52 6.8 m/h 0 %
08:00:00 overcast clouds 35.590 35.590 35.590 46 7.38 m/h 0 %
11:00:00 overcast clouds 40.980 40.980 40.980 33 7.09 m/h 0 %
14:00:00 overcast clouds 44.310 44.310 44.310 25 6.44 m/h 0 %
17:00:00 overcast clouds 43.940 43.940 43.940 25 6.19 m/h 0 %
20:00:00 overcast clouds 39.570 39.570 39.570 32 6 m/h 0 %
23:00:00 overcast clouds 35.860 35.860 35.860 42 8.56 m/h 0 %
18-Aug-2020 (Tue)
02:00:00 broken clouds 34.320 34.320 34.320 46 7.27 m/h 0 %
05:00:00 broken clouds 33.490 33.490 33.490 50 6.93 m/h 0 %
08:00:00 clear sky 36.400 36.400 36.400 42 7.48 m/h 0 %
11:00:00 clear sky 42.940 42.940 42.940 28 7.48 m/h 0 %
14:00:00 clear sky 45.460 45.460 45.460 23 5.89 m/h 0 %
17:00:00 scattered clouds 43.050 43.050 43.050 27 6.71 m/h 0 %

Famous Cities (60)